sensor_id;sensor_type;location;lat;lon;timestamp;temperature;humidity
79055;DHT22;68452;47.186;-1.528;2023-06-26T00:02:03;23.70;56.90
79055;DHT22;68452;47.186;-1.528;2023-06-26T00:04:29;23.70;57.10
79055;DHT22;68452;47.186;-1.528;2023-06-26T00:06:55;23.70;57.30
79055;DHT22;68452;47.186;-1.528;2023-06-26T00:09:21;23.70;57.30
79055;DHT22;68452;47.186;-1.528;2023-06-26T00:11:47;23.70;57.40
79055;DHT22;68452;47.186;-1.528;2023-06-26T00:14:13;23.70;57.30
79055;DHT22;68452;47.186;-1.528;2023-06-26T00:16:38;23.70;57.30
79055;DHT22;68452;47.186;-1.528;2023-06-26T00:19:04;23.70;57.20
79055;DHT22;68452;47.186;-1.528;2023-06-26T00:21:30;23.70;57.00
79055;DHT22;68452;47.186;-1.528;2023-06-26T00:23:56;23.60;56.90
79055;DHT22;68452;47.186;-1.528;2023-06-26T00:26:22;23.60;56.80
79055;DHT22;68452;47.186;-1.528;2023-06-26T00:28:49;23.60;56.90
79055;DHT22;68452;47.186;-1.528;2023-06-26T00:31:15;23.60;57.00
79055;DHT22;68452;47.186;-1.528;2023-06-26T00:33:41;23.60;56.90
79055;DHT22;68452;47.186;-1.528;2023-06-26T00:36:07;23.50;56.80
79055;DHT22;68452;47.186;-1.528;2023-06-26T00:38:32;23.50;56.70
79055;DHT22;68452;47.186;-1.528;2023-06-26T00:40:58;23.50;56.60
79055;DHT22;68452;47.186;-1.528;2023-06-26T00:43:24;23.50;56.50
79055;DHT22;68452;47.186;-1.528;2023-06-26T00:45:50;23.50;56.50
79055;DHT22;68452;47.186;-1.528;2023-06-26T00:48:16;23.50;56.60
79055;DHT22;68452;47.186;-1.528;2023-06-26T00:50:42;23.50;56.30
79055;DHT22;68452;47.186;-1.528;2023-06-26T00:53:09;23.40;56.30
79055;DHT22;68452;47.186;-1.528;2023-06-26T00:55:36;23.40;56.30
79055;DHT22;68452;47.186;-1.528;2023-06-26T00:58:02;23.40;56.10
79055;DHT22;68452;47.186;-1.528;2023-06-26T01:00:28;23.40;55.80
79055;DHT22;68452;47.186;-1.528;2023-06-26T01:02:54;23.40;55.70
79055;DHT22;68452;47.186;-1.528;2023-06-26T01:05:25;23.30;55.50
79055;DHT22;68452;47.186;-1.528;2023-06-26T01:07:52;23.30;55.40
79055;DHT22;68452;47.186;-1.528;2023-06-26T01:10:19;23.30;55.30
79055;DHT22;68452;47.186;-1.528;2023-06-26T01:12:45;23.30;55.20
79055;DHT22;68452;47.186;-1.528;2023-06-26T01:15:11;23.30;55.10
79055;DHT22;68452;47.186;-1.528;2023-06-26T01:17:37;23.30;55.00
79055;DHT22;68452;47.186;-1.528;2023-06-26T01:20:05;23.20;54.80
79055;DHT22;68452;47.186;-1.528;2023-06-26T01:22:48;23.20;54.80
79055;DHT22;68452;47.186;-1.528;2023-06-26T01:25:29;23.20;54.90
79055;DHT22;68452;47.186;-1.528;2023-06-26T01:28:07;23.20;54.80
79055;DHT22;68452;47.186;-1.528;2023-06-26T01:30:44;23.10;54.80
79055;DHT22;68452;47.186;-1.528;2023-06-26T01:33:11;23.10;54.90
79055;DHT22;68452;47.186;-1.528;2023-06-26T01:35:38;23.10;54.60
79055;DHT22;68452;47.186;-1.528;2023-06-26T01:38:18;23.10;54.80
79055;DHT22;68452;47.186;-1.528;2023-06-26T01:40:45;23.10;54.70
79055;DHT22;68452;47.186;-1.528;2023-06-26T01:43:46;23.00;54.70
79055;DHT22;68452;47.186;-1.528;2023-06-26T01:46:18;23.00;54.70
79055;DHT22;68452;47.186;-1.528;2023-06-26T01:49:07;23.00;54.80
79055;DHT22;68452;47.186;-1.528;2023-06-26T01:51:41;23.00;54.70
79055;DHT22;68452;47.186;-1.528;2023-06-26T01:54:14;22.90;54.60
79055;DHT22;68452;47.186;-1.528;2023-06-26T01:56:45;22.90;54.70
79055;DHT22;68452;47.186;-1.528;2023-06-26T01:59:12;22.90;54.80
79055;DHT22;68452;47.186;-1.528;2023-06-26T02:01:41;22.80;54.70
79055;DHT22;68452;47.186;-1.528;2023-06-26T02:04:06;22.80;54.60
79055;DHT22;68452;47.186;-1.528;2023-06-26T02:06:32;22.80;54.60
79055;DHT22;68452;47.186;-1.528;2023-06-26T02:08:58;22.80;54.60
79055;DHT22;68452;47.186;-1.528;2023-06-26T02:11:24;22.80;54.50
79055;DHT22;68452;47.186;-1.528;2023-06-26T02:13:50;22.80;54.40
79055;DHT22;68452;47.186;-1.528;2023-06-26T02:16:16;22.80;54.40
79055;DHT22;68452;47.186;-1.528;2023-06-26T02:18:43;22.80;54.40
79055;DHT22;68452;47.186;-1.528;2023-06-26T02:21:09;22.80;54.30
79055;DHT22;68452;47.186;-1.528;2023-06-26T02:23:35;22.80;54.30
79055;DHT22;68452;47.186;-1.528;2023-06-26T02:26:00;22.80;54.20
79055;DHT22;68452;47.186;-1.528;2023-06-26T02:28:28;22.80;54.10
79055;DHT22;68452;47.186;-1.528;2023-06-26T02:30:53;22.80;54.20
79055;DHT22;68452;47.186;-1.528;2023-06-26T02:33:19;22.80;54.10
79055;DHT22;68452;47.186;-1.528;2023-06-26T02:35:45;22.70;54.10
79055;DHT22;68452;47.186;-1.528;2023-06-26T02:38:11;22.70;54.20
79055;DHT22;68452;47.186;-1.528;2023-06-26T02:40:38;22.70;54.10
79055;DHT22;68452;47.186;-1.528;2023-06-26T02:43:04;22.70;54.10
79055;DHT22;68452;47.186;-1.528;2023-06-26T02:45:30;22.70;54.10
79055;DHT22;68452;47.186;-1.528;2023-06-26T02:47:55;22.70;54.00
79055;DHT22;68452;47.186;-1.528;2023-06-26T02:50:21;22.70;54.10
79055;DHT22;68452;47.186;-1.528;2023-06-26T02:52:47;22.60;54.10
79055;DHT22;68452;47.186;-1.528;2023-06-26T02:55:16;22.60;54.10
79055;DHT22;68452;47.186;-1.528;2023-06-26T02:57:42;22.60;54.10
79055;DHT22;68452;47.186;-1.528;2023-06-26T03:00:08;22.60;54.00
79055;DHT22;68452;47.186;-1.528;2023-06-26T03:02:34;22.60;53.90
79055;DHT22;68452;47.186;-1.528;2023-06-26T03:05:00;22.60;54.00
79055;DHT22;68452;47.186;-1.528;2023-06-26T03:07:26;22.50;54.00
79055;DHT22;68452;47.186;-1.528;2023-06-26T03:09:52;22.50;53.90
79055;DHT22;68452;47.186;-1.528;2023-06-26T03:12:18;22.50;54.00
79055;DHT22;68452;47.186;-1.528;2023-06-26T03:14:43;22.50;54.00
79055;DHT22;68452;47.186;-1.528;2023-06-26T03:17:09;22.50;54.10
79055;DHT22;68452;47.186;-1.528;2023-06-26T03:19:35;22.50;54.10
79055;DHT22;68452;47.186;-1.528;2023-06-26T03:22:01;22.50;54.10
79055;DHT22;68452;47.186;-1.528;2023-06-26T03:24:27;22.50;54.20
79055;DHT22;68452;47.186;-1.528;2023-06-26T03:26:53;22.40;54.20
79055;DHT22;68452;47.186;-1.528;2023-06-26T03:29:19;22.40;54.20
79055;DHT22;68452;47.186;-1.528;2023-06-26T03:31:44;22.40;54.30
79055;DHT22;68452;47.186;-1.528;2023-06-26T03:34:10;22.40;54.30
79055;DHT22;68452;47.186;-1.528;2023-06-26T03:36:36;22.30;54.40
79055;DHT22;68452;47.186;-1.528;2023-06-26T03:39:02;22.30;54.30
79055;DHT22;68452;47.186;-1.528;2023-06-26T03:41:29;22.30;54.10
79055;DHT22;68452;47.186;-1.528;2023-06-26T03:43:55;22.30;54.10
79055;DHT22;68452;47.186;-1.528;2023-06-26T03:46:22;22.30;54.10
79055;DHT22;68452;47.186;-1.528;2023-06-26T03:48:48;22.20;54.00
79055;DHT22;68452;47.186;-1.528;2023-06-26T03:51:14;22.20;54.20
79055;DHT22;68452;47.186;-1.528;2023-06-26T03:53:40;22.20;54.20
79055;DHT22;68452;47.186;-1.528;2023-06-26T03:56:06;22.20;54.20
79055;DHT22;68452;47.186;-1.528;2023-06-26T03:58:32;22.10;54.10
79055;DHT22;68452;47.186;-1.528;2023-06-26T04:00:58;22.10;54.20
79055;DHT22;68452;47.186;-1.528;2023-06-26T04:03:24;22.10;54.20
79055;DHT22;68452;47.186;-1.528;2023-06-26T04:05:50;22.00;54.30
79055;DHT22;68452;47.186;-1.528;2023-06-26T04:08:16;22.10;54.30
79055;DHT22;68452;47.186;-1.528;2023-06-26T04:10:41;22.10;54.30
79055;DHT22;68452;47.186;-1.528;2023-06-26T04:13:07;22.10;54.20
79055;DHT22;68452;47.186;-1.528;2023-06-26T04:15:33;22.00;54.30
79055;DHT22;68452;47.186;-1.528;2023-06-26T04:17:59;22.00;54.20
79055;DHT22;68452;47.186;-1.528;2023-06-26T04:20:24;22.00;54.40
79055;DHT22;68452;47.186;-1.528;2023-06-26T04:22:50;22.00;54.30
79055;DHT22;68452;47.186;-1.528;2023-06-26T04:25:16;21.90;54.50
79055;DHT22;68452;47.186;-1.528;2023-06-26T04:27:42;21.90;54.50
79055;DHT22;68452;47.186;-1.528;2023-06-26T04:30:08;21.90;54.50
79055;DHT22;68452;47.186;-1.528;2023-06-26T04:32:34;21.90;54.60
79055;DHT22;68452;47.186;-1.528;2023-06-26T04:35:00;21.90;54.50
79055;DHT22;68452;47.186;-1.528;2023-06-26T04:37:26;21.90;54.50
79055;DHT22;68452;47.186;-1.528;2023-06-26T04:39:52;21.90;54.50
79055;DHT22;68452;47.186;-1.528;2023-06-26T04:42:18;21.90;54.40
79055;DHT22;68452;47.186;-1.528;2023-06-26T04:44:44;21.90;54.30
79055;DHT22;68452;47.186;-1.528;2023-06-26T04:47:10;21.90;54.20
79055;DHT22;68452;47.186;-1.528;2023-06-26T04:49:36;21.90;54.20
79055;DHT22;68452;47.186;-1.528;2023-06-26T04:52:02;21.90;54.20
79055;DHT22;68452;47.186;-1.528;2023-06-26T04:54:28;21.90;54.20
79055;DHT22;68452;47.186;-1.528;2023-06-26T04:56:54;21.90;54.20
79055;DHT22;68452;47.186;-1.528;2023-06-26T04:59:20;21.90;54.20
79055;DHT22;68452;47.186;-1.528;2023-06-26T05:01:46;21.90;54.10
79055;DHT22;68452;47.186;-1.528;2023-06-26T05:04:14;21.90;54.20
79055;DHT22;68452;47.186;-1.528;2023-06-26T05:06:40;21.90;54.10
79055;DHT22;68452;47.186;-1.528;2023-06-26T05:09:07;21.90;54.20
79055;DHT22;68452;47.186;-1.528;2023-06-26T05:11:33;21.90;54.20
79055;DHT22;68452;47.186;-1.528;2023-06-26T05:13:59;21.90;54.20
79055;DHT22;68452;47.186;-1.528;2023-06-26T05:16:24;21.90;54.10
79055;DHT22;68452;47.186;-1.528;2023-06-26T05:18:50;21.90;54.10
79055;DHT22;68452;47.186;-1.528;2023-06-26T05:21:16;21.90;54.10
79055;DHT22;68452;47.186;-1.528;2023-06-26T05:23:42;22.00;54.10
79055;DHT22;68452;47.186;-1.528;2023-06-26T05:26:10;21.90;54.00
79055;DHT22;68452;47.186;-1.528;2023-06-26T05:28:36;22.00;54.10
79055;DHT22;68452;47.186;-1.528;2023-06-26T05:31:03;22.00;54.10
79055;DHT22;68452;47.186;-1.528;2023-06-26T05:33:31;21.90;54.20
79055;DHT22;68452;47.186;-1.528;2023-06-26T05:35:59;22.00;54.00
79055;DHT22;68452;47.186;-1.528;2023-06-26T05:38:26;22.00;54.20
79055;DHT22;68452;47.186;-1.528;2023-06-26T05:40:52;22.00;54.10
79055;DHT22;68452;47.186;-1.528;2023-06-26T05:43:18;22.00;54.00
79055;DHT22;68452;47.186;-1.528;2023-06-26T05:45:48;22.00;54.10
79055;DHT22;68452;47.186;-1.528;2023-06-26T05:48:14;22.00;53.90
79055;DHT22;68452;47.186;-1.528;2023-06-26T05:50:41;22.00;54.00
79055;DHT22;68452;47.186;-1.528;2023-06-26T05:53:08;22.10;54.00
79055;DHT22;68452;47.186;-1.528;2023-06-26T05:55:34;22.00;53.80
79055;DHT22;68452;47.186;-1.528;2023-06-26T05:58:01;22.00;53.80
79055;DHT22;68452;47.186;-1.528;2023-06-26T06:00:28;22.00;53.70
79055;DHT22;68452;47.186;-1.528;2023-06-26T06:02:54;22.00;53.70
79055;DHT22;68452;47.186;-1.528;2023-06-26T06:05:21;22.00;53.80
79055;DHT22;68452;47.186;-1.528;2023-06-26T06:07:47;22.00;53.80
79055;DHT22;68452;47.186;-1.528;2023-06-26T06:10:13;22.10;53.70
79055;DHT22;68452;47.186;-1.528;2023-06-26T06:12:39;22.10;53.70
79055;DHT22;68452;47.186;-1.528;2023-06-26T06:15:06;22.10;53.70
79055;DHT22;68452;47.186;-1.528;2023-06-26T06:17:31;22.10;53.80
79055;DHT22;68452;47.186;-1.528;2023-06-26T06:19:57;22.20;53.90
79055;DHT22;68452;47.186;-1.528;2023-06-26T06:22:23;22.20;53.80
79055;DHT22;68452;47.186;-1.528;2023-06-26T06:24:50;22.20;53.50
79055;DHT22;68452;47.186;-1.528;2023-06-26T06:27:16;22.20;53.20
79055;DHT22;68452;47.186;-1.528;2023-06-26T06:29:42;22.20;53.30
79055;DHT22;68452;47.186;-1.528;2023-06-26T06:32:08;22.20;53.20
79055;DHT22;68452;47.186;-1.528;2023-06-26T06:34:34;22.20;53.40
79055;DHT22;68452;47.186;-1.528;2023-06-26T06:37:01;22.20;53.10
79055;DHT22;68452;47.186;-1.528;2023-06-26T06:39:27;22.20;53.00
79055;DHT22;68452;47.186;-1.528;2023-06-26T06:41:53;22.30;53.00
79055;DHT22;68452;47.186;-1.528;2023-06-26T06:44:19;22.30;52.90
79055;DHT22;68452;47.186;-1.528;2023-06-26T06:46:45;22.40;52.60
79055;DHT22;68452;47.186;-1.528;2023-06-26T06:49:10;22.40;52.30
79055;DHT22;68452;47.186;-1.528;2023-06-26T06:51:36;22.40;52.10
79055;DHT22;68452;47.186;-1.528;2023-06-26T06:54:02;22.40;52.00
79055;DHT22;68452;47.186;-1.528;2023-06-26T06:56:28;22.50;52.10
79055;DHT22;68452;47.186;-1.528;2023-06-26T06:58:54;22.50;51.80
79055;DHT22;68452;47.186;-1.528;2023-06-26T07:01:20;22.60;51.70
79055;DHT22;68452;47.186;-1.528;2023-06-26T07:03:46;22.60;51.70
79055;DHT22;68452;47.186;-1.528;2023-06-26T07:06:12;22.60;51.30
79055;DHT22;68452;47.186;-1.528;2023-06-26T07:08:38;22.60;51.30
79055;DHT22;68452;47.186;-1.528;2023-06-26T07:11:04;22.70;51.50
79055;DHT22;68452;47.186;-1.528;2023-06-26T07:13:30;22.70;51.60
79055;DHT22;68452;47.186;-1.528;2023-06-26T07:15:56;22.80;51.40
79055;DHT22;68452;47.186;-1.528;2023-06-26T07:18:22;22.80;51.30
79055;DHT22;68452;47.186;-1.528;2023-06-26T07:20:48;22.90;50.80
79055;DHT22;68452;47.186;-1.528;2023-06-26T07:23:14;22.90;51.20
79055;DHT22;68452;47.186;-1.528;2023-06-26T07:25:40;22.90;50.80
79055;DHT22;68452;47.186;-1.528;2023-06-26T07:28:12;23.00;50.80
79055;DHT22;68452;47.186;-1.528;2023-06-26T07:30:38;23.00;50.20
79055;DHT22;68452;47.186;-1.528;2023-06-26T07:33:05;23.00;49.30
79055;DHT22;68452;47.186;-1.528;2023-06-26T07:35:31;23.00;49.20
79055;DHT22;68452;47.186;-1.528;2023-06-26T07:37:56;23.10;49.30
79055;DHT22;68452;47.186;-1.528;2023-06-26T07:40:22;23.10;49.50
79055;DHT22;68452;47.186;-1.528;2023-06-26T07:42:48;23.20;49.60
79055;DHT22;68452;47.186;-1.528;2023-06-26T07:45:14;23.20;49.20
79055;DHT22;68452;47.186;-1.528;2023-06-26T07:47:40;23.20;49.40
79055;DHT22;68452;47.186;-1.528;2023-06-26T07:50:06;23.20;49.10
79055;DHT22;68452;47.186;-1.528;2023-06-26T07:52:32;23.10;49.30
79055;DHT22;68452;47.186;-1.528;2023-06-26T07:54:58;23.10;48.90
79055;DHT22;68452;47.186;-1.528;2023-06-26T07:57:24;23.10;48.80
79055;DHT22;68452;47.186;-1.528;2023-06-26T07:59:50;23.10;49.00
79055;DHT22;68452;47.186;-1.528;2023-06-26T08:02:16;23.20;48.80
79055;DHT22;68452;47.186;-1.528;2023-06-26T08:04:43;23.20;48.50
79055;DHT22;68452;47.186;-1.528;2023-06-26T08:07:09;23.30;48.30
79055;DHT22;68452;47.186;-1.528;2023-06-26T08:09:36;23.40;48.30
79055;DHT22;68452;47.186;-1.528;2023-06-26T08:12:02;23.40;47.90
79055;DHT22;68452;47.186;-1.528;2023-06-26T08:14:28;23.30;46.60
79055;DHT22;68452;47.186;-1.528;2023-06-26T08:16:54;23.30;46.70
79055;DHT22;68452;47.186;-1.528;2023-06-26T08:19:20;23.40;46.90
79055;DHT22;68452;47.186;-1.528;2023-06-26T08:21:46;23.40;46.80
79055;DHT22;68452;47.186;-1.528;2023-06-26T08:24:13;23.40;46.60
79055;DHT22;68452;47.186;-1.528;2023-06-26T08:26:49;23.40;46.90
79055;DHT22;68452;47.186;-1.528;2023-06-26T08:29:15;23.50;47.00
79055;DHT22;68452;47.186;-1.528;2023-06-26T08:31:42;23.50;46.70
79055;DHT22;68452;47.186;-1.528;2023-06-26T08:34:08;23.50;46.00
79055;DHT22;68452;47.186;-1.528;2023-06-26T08:36:34;23.60;45.80
79055;DHT22;68452;47.186;-1.528;2023-06-26T08:39:00;23.60;46.00
79055;DHT22;68452;47.186;-1.528;2023-06-26T08:41:26;23.70;46.00
79055;DHT22;68452;47.186;-1.528;2023-06-26T08:43:52;23.70;46.20
79055;DHT22;68452;47.186;-1.528;2023-06-26T08:46:19;23.70;45.50
79055;DHT22;68452;47.186;-1.528;2023-06-26T08:49:01;23.70;45.30
79055;DHT22;68452;47.186;-1.528;2023-06-26T08:51:32;23.70;45.30
79055;DHT22;68452;47.186;-1.528;2023-06-26T08:54:02;23.80;44.90
79055;DHT22;68452;47.186;-1.528;2023-06-26T08:56:41;23.80;44.40
79055;DHT22;68452;47.186;-1.528;2023-06-26T08:59:07;23.80;44.20
79055;DHT22;68452;47.186;-1.528;2023-06-26T09:01:36;23.90;44.60
79055;DHT22;68452;47.186;-1.528;2023-06-26T09:04:02;24.00;45.10
79055;DHT22;68452;47.186;-1.528;2023-06-26T09:06:28;24.10;44.90
79055;DHT22;68452;47.186;-1.528;2023-06-26T09:08:55;24.10;44.10
79055;DHT22;68452;47.186;-1.528;2023-06-26T09:11:21;24.10;44.30
79055;DHT22;68452;47.186;-1.528;2023-06-26T09:13:47;24.10;43.90
79055;DHT22;68452;47.186;-1.528;2023-06-26T09:16:13;24.20;44.10
79055;DHT22;68452;47.186;-1.528;2023-06-26T09:18:41;24.30;44.00
79055;DHT22;68452;47.186;-1.528;2023-06-26T09:21:08;24.30;43.70
79055;DHT22;68452;47.186;-1.528;2023-06-26T09:23:35;24.30;44.10
79055;DHT22;68452;47.186;-1.528;2023-06-26T09:26:05;24.20;43.10
79055;DHT22;68452;47.186;-1.528;2023-06-26T09:28:32;24.20;43.30
79055;DHT22;68452;47.186;-1.528;2023-06-26T09:31:06;24.20;43.00
79055;DHT22;68452;47.186;-1.528;2023-06-26T09:33:35;24.20;42.90
79055;DHT22;68452;47.186;-1.528;2023-06-26T09:36:06;24.30;42.90
79055;DHT22;68452;47.186;-1.528;2023-06-26T09:38:34;24.30;42.90
79055;DHT22;68452;47.186;-1.528;2023-06-26T09:41:01;24.40;42.30
79055;DHT22;68452;47.186;-1.528;2023-06-26T09:43:27;24.40;41.40
79055;DHT22;68452;47.186;-1.528;2023-06-26T09:45:53;24.50;41.80
79055;DHT22;68452;47.186;-1.528;2023-06-26T09:48:19;24.60;41.30
79055;DHT22;68452;47.186;-1.528;2023-06-26T09:50:46;24.50;40.30
79055;DHT22;68452;47.186;-1.528;2023-06-26T09:53:12;24.50;41.00
79055;DHT22;68452;47.186;-1.528;2023-06-26T09:55:43;24.50;40.90
79055;DHT22;68452;47.186;-1.528;2023-06-26T09:58:13;24.50;41.20
79055;DHT22;68452;47.186;-1.528;2023-06-26T10:00:43;24.60;42.10
79055;DHT22;68452;47.186;-1.528;2023-06-26T10:03:10;24.70;41.30
79055;DHT22;68452;47.186;-1.528;2023-06-26T10:05:37;24.80;40.70
79055;DHT22;68452;47.186;-1.528;2023-06-26T10:08:05;25.00;40.00
79055;DHT22;68452;47.186;-1.528;2023-06-26T10:10:33;25.10;40.00
79055;DHT22;68452;47.186;-1.528;2023-06-26T10:13:04;25.20;40.70
79055;DHT22;68452;47.186;-1.528;2023-06-26T10:15:33;25.20;40.40
79055;DHT22;68452;47.186;-1.528;2023-06-26T10:18:00;25.10;40.40
79055;DHT22;68452;47.186;-1.528;2023-06-26T10:20:26;25.30;40.20
79055;DHT22;68452;47.186;-1.528;2023-06-26T10:22:55;26.20;38.50
79055;DHT22;68452;47.186;-1.528;2023-06-26T10:25:24;26.40;37.90
79055;DHT22;68452;47.186;-1.528;2023-06-26T10:27:57;26.30;37.50
79055;DHT22;68452;47.186;-1.528;2023-06-26T10:30:27;26.80;36.70
79055;DHT22;68452;47.186;-1.528;2023-06-26T10:32:54;26.90;36.20
79055;DHT22;68452;47.186;-1.528;2023-06-26T10:35:20;27.30;36.10
79055;DHT22;68452;47.186;-1.528;2023-06-26T10:37:49;27.60;35.90
79055;DHT22;68452;47.186;-1.528;2023-06-26T10:40:22;27.40;36.10
79055;DHT22;68452;47.186;-1.528;2023-06-26T10:42:48;27.00;36.80
79055;DHT22;68452;47.186;-1.528;2023-06-26T10:45:20;26.80;37.50
79055;DHT22;68452;47.186;-1.528;2023-06-26T10:47:47;26.80;38.00
79055;DHT22;68452;47.186;-1.528;2023-06-26T10:50:32;26.70;38.50
79055;DHT22;68452;47.186;-1.528;2023-06-26T10:55:59;26.60;37.90
79055;DHT22;68452;47.186;-1.528;2023-06-26T10:58:41;27.30;37.30
79055;DHT22;68452;47.186;-1.528;2023-06-26T11:03:42;28.90;34.00
79055;DHT22;68452;47.186;-1.528;2023-06-26T11:06:10;28.60;34.40
79055;DHT22;68452;47.186;-1.528;2023-06-26T11:08:50;28.50;34.80
79055;DHT22;68452;47.186;-1.528;2023-06-26T11:11:16;28.30;35.10
79055;DHT22;68452;47.186;-1.528;2023-06-26T11:13:45;28.10;35.50
79055;DHT22;68452;47.186;-1.528;2023-06-26T11:16:12;28.00;35.30
79055;DHT22;68452;47.186;-1.528;2023-06-26T11:18:39;27.90;36.00
79055;DHT22;68452;47.186;-1.528;2023-06-26T11:21:06;27.80;35.00
79055;DHT22;68452;47.186;-1.528;2023-06-26T11:23:33;27.80;36.20
79055;DHT22;68452;47.186;-1.528;2023-06-26T11:26:20;27.50;35.50
79055;DHT22;68452;47.186;-1.528;2023-06-26T11:28:53;27.20;36.10
79055;DHT22;68452;47.186;-1.528;2023-06-26T11:31:32;27.20;36.10
79055;DHT22;68452;47.186;-1.528;2023-06-26T11:33:59;27.20;36.50
79055;DHT22;68452;47.186;-1.528;2023-06-26T11:36:29;27.20;36.30
79055;DHT22;68452;47.186;-1.528;2023-06-26T11:38:56;27.20;36.40
79055;DHT22;68452;47.186;-1.528;2023-06-26T11:41:32;27.10;35.90
79055;DHT22;68452;47.186;-1.528;2023-06-26T11:44:06;26.90;36.30
79055;DHT22;68452;47.186;-1.528;2023-06-26T11:46:34;26.80;37.10
79055;DHT22;68452;47.186;-1.528;2023-06-26T11:49:03;26.80;37.00
79055;DHT22;68452;47.186;-1.528;2023-06-26T11:51:29;26.80;36.60
79055;DHT22;68452;47.186;-1.528;2023-06-26T11:53:55;26.80;37.00
79055;DHT22;68452;47.186;-1.528;2023-06-26T11:56:21;26.80;37.70
79055;DHT22;68452;47.186;-1.528;2023-06-26T12:01:38;26.80;37.70
79055;DHT22;68452;47.186;-1.528;2023-06-26T12:04:06;26.80;37.40
79055;DHT22;68452;47.186;-1.528;2023-06-26T12:06:34;26.90;37.70
79055;DHT22;68452;47.186;-1.528;2023-06-26T12:09:01;26.90;36.60
79055;DHT22;68452;47.186;-1.528;2023-06-26T12:11:32;27.00;36.90
79055;DHT22;68452;47.186;-1.528;2023-06-26T12:13:59;27.10;36.10
79055;DHT22;68452;47.186;-1.528;2023-06-26T12:16:27;27.00;35.70
79055;DHT22;68452;47.186;-1.528;2023-06-26T12:18:59;27.00;36.00
79055;DHT22;68452;47.186;-1.528;2023-06-26T12:24:12;26.90;36.30
79055;DHT22;68452;47.186;-1.528;2023-06-26T12:26:38;26.90;36.40
79055;DHT22;68452;47.186;-1.528;2023-06-26T12:29:05;26.90;36.50
79055;DHT22;68452;47.186;-1.528;2023-06-26T12:31:31;27.00;36.50
79055;DHT22;68452;47.186;-1.528;2023-06-26T12:33:57;27.10;36.20
79055;DHT22;68452;47.186;-1.528;2023-06-26T12:36:23;27.10;36.30
79055;DHT22;68452;47.186;-1.528;2023-06-26T12:38:49;27.20;35.40
79055;DHT22;68452;47.186;-1.528;2023-06-26T12:41:15;27.20;35.60
79055;DHT22;68452;47.186;-1.528;2023-06-26T12:43:42;27.20;36.00
79055;DHT22;68452;47.186;-1.528;2023-06-26T12:46:09;27.40;35.60
79055;DHT22;68452;47.186;-1.528;2023-06-26T12:48:39;27.40;35.40
79055;DHT22;68452;47.186;-1.528;2023-06-26T12:51:16;27.30;35.70
79055;DHT22;68452;47.186;-1.528;2023-06-26T12:53:42;27.30;35.70
79055;DHT22;68452;47.186;-1.528;2023-06-26T12:56:10;27.40;35.40
79055;DHT22;68452;47.186;-1.528;2023-06-26T12:58:37;27.40;35.80
79055;DHT22;68452;47.186;-1.528;2023-06-26T13:01:07;27.50;36.10
79055;DHT22;68452;47.186;-1.528;2023-06-26T13:03:39;27.50;36.30
79055;DHT22;68452;47.186;-1.528;2023-06-26T13:06:05;27.60;36.50
79055;DHT22;68452;47.186;-1.528;2023-06-26T13:08:31;27.60;36.40
79055;DHT22;68452;47.186;-1.528;2023-06-26T13:10:57;27.70;35.00
79055;DHT22;68452;47.186;-1.528;2023-06-26T13:13:23;27.70;35.90
79055;DHT22;68452;47.186;-1.528;2023-06-26T13:15:49;27.80;35.10
79055;DHT22;68452;47.186;-1.528;2023-06-26T13:18:15;28.00;34.80
79055;DHT22;68452;47.186;-1.528;2023-06-26T13:20:41;28.30;34.60
79055;DHT22;68452;47.186;-1.528;2023-06-26T13:23:06;28.50;33.40
79055;DHT22;68452;47.186;-1.528;2023-06-26T13:25:33;28.80;33.80
79055;DHT22;68452;47.186;-1.528;2023-06-26T13:27:58;29.20;33.40
79055;DHT22;68452;47.186;-1.528;2023-06-26T13:30:24;29.40;32.70
79055;DHT22;68452;47.186;-1.528;2023-06-26T13:32:50;29.40;33.00
79055;DHT22;68452;47.186;-1.528;2023-06-26T13:35:16;29.20;33.00
79055;DHT22;68452;47.186;-1.528;2023-06-26T13:37:42;29.00;33.60
79055;DHT22;68452;47.186;-1.528;2023-06-26T13:40:08;29.10;33.80
79055;DHT22;68452;47.186;-1.528;2023-06-26T13:42:35;29.20;33.70
79055;DHT22;68452;47.186;-1.528;2023-06-26T13:45:02;29.50;33.40
79055;DHT22;68452;47.186;-1.528;2023-06-26T13:47:28;29.50;33.50
79055;DHT22;68452;47.186;-1.528;2023-06-26T13:49:54;29.30;34.00
79055;DHT22;68452;47.186;-1.528;2023-06-26T13:52:20;29.20;34.00
79055;DHT22;68452;47.186;-1.528;2023-06-26T13:54:46;29.20;33.60
79055;DHT22;68452;47.186;-1.528;2023-06-26T13:57:12;29.00;33.60
79055;DHT22;68452;47.186;-1.528;2023-06-26T13:59:39;28.90;33.60
79055;DHT22;68452;47.186;-1.528;2023-06-26T14:02:06;28.90;33.80
79055;DHT22;68452;47.186;-1.528;2023-06-26T14:04:32;28.80;34.20
79055;DHT22;68452;47.186;-1.528;2023-06-26T14:06:58;28.70;34.80
79055;DHT22;68452;47.186;-1.528;2023-06-26T14:09:24;28.70;34.10
79055;DHT22;68452;47.186;-1.528;2023-06-26T14:11:50;28.70;34.20
79055;DHT22;68452;47.186;-1.528;2023-06-26T14:14:16;29.20;33.90
79055;DHT22;68452;47.186;-1.528;2023-06-26T14:16:42;30.00;32.30
79055;DHT22;68452;47.186;-1.528;2023-06-26T14:19:07;31.40;31.40
79055;DHT22;68452;47.186;-1.528;2023-06-26T14:21:38;32.40;29.90
79055;DHT22;68452;47.186;-1.528;2023-06-26T14:24:04;32.70;29.40
79055;DHT22;68452;47.186;-1.528;2023-06-26T14:26:30;32.30;29.10
79055;DHT22;68452;47.186;-1.528;2023-06-26T14:28:57;32.00;29.40
79055;DHT22;68452;47.186;-1.528;2023-06-26T14:31:23;31.60;29.70
79055;DHT22;68452;47.186;-1.528;2023-06-26T14:33:49;31.20;30.80
79055;DHT22;68452;47.186;-1.528;2023-06-26T14:36:15;30.80;30.40
79055;DHT22;68452;47.186;-1.528;2023-06-26T14:38:41;30.50;31.90
79055;DHT22;68452;47.186;-1.528;2023-06-26T14:41:06;30.40;32.60
79055;DHT22;68452;47.186;-1.528;2023-06-26T14:43:32;30.30;32.80
79055;DHT22;68452;47.186;-1.528;2023-06-26T14:45:58;30.10;32.40
79055;DHT22;68452;47.186;-1.528;2023-06-26T14:48:24;30.00;32.80
79055;DHT22;68452;47.186;-1.528;2023-06-26T14:50:50;29.80;32.70
79055;DHT22;68452;47.186;-1.528;2023-06-26T14:53:15;29.80;32.80
79055;DHT22;68452;47.186;-1.528;2023-06-26T14:55:41;29.80;32.60
79055;DHT22;68452;47.186;-1.528;2023-06-26T14:58:07;29.70;33.20
79055;DHT22;68452;47.186;-1.528;2023-06-26T15:00:33;29.50;33.60
79055;DHT22;68452;47.186;-1.528;2023-06-26T15:02:59;29.50;33.20
79055;DHT22;68452;47.186;-1.528;2023-06-26T15:05:24;29.40;33.20
79055;DHT22;68452;47.186;-1.528;2023-06-26T15:07:50;29.40;33.30
79055;DHT22;68452;47.186;-1.528;2023-06-26T15:10:16;29.30;33.30
79055;DHT22;68452;47.186;-1.528;2023-06-26T15:12:42;29.20;32.80
79055;DHT22;68452;47.186;-1.528;2023-06-26T15:15:09;29.20;33.40
79055;DHT22;68452;47.186;-1.528;2023-06-26T15:17:35;29.30;33.60
79055;DHT22;68452;47.186;-1.528;2023-06-26T15:20:01;29.20;34.00
79055;DHT22;68452;47.186;-1.528;2023-06-26T15:22:27;29.30;34.40
79055;DHT22;68452;47.186;-1.528;2023-06-26T15:24:53;29.30;34.20
79055;DHT22;68452;47.186;-1.528;2023-06-26T15:27:20;29.30;34.20